createdAt,value
2023-03-01T00:00:21.192Z,7.03
2023-03-01T00:03:10.759Z,6.00
2023-03-01T00:05:45.564Z,6.18
2023-03-01T00:08:15.284Z,5.50
2023-03-01T00:10:44.496Z,6.63
2023-03-01T00:13:13.941Z,6.07
2023-03-01T00:15:44.716Z,6.70
2023-03-01T00:18:14.240Z,7.00
2023-03-01T00:20:43.392Z,5.43
2023-03-01T00:23:12.807Z,5.20
2023-03-01T00:25:44.492Z,6.23
2023-03-01T00:28:14.001Z,5.95
2023-03-01T00:30:44.996Z,4.85
2023-03-01T00:33:14.614Z,4.53
2023-03-01T00:35:43.713Z,7.68
2023-03-01T00:38:13.482Z,5.85
2023-03-01T00:40:42.530Z,4.18
2023-03-01T00:43:12.445Z,5.53
2023-03-01T00:45:43.011Z,7.47
2023-03-01T00:48:12.547Z,7.40
2023-03-01T00:50:41.618Z,6.95
2023-03-01T00:55:40.390Z,6.32
2023-03-01T00:58:09.835Z,8.18
2023-03-01T01:00:39.112Z,6.27
2023-03-01T01:03:10.071Z,8.13
2023-03-01T01:05:39.504Z,5.93
2023-03-01T01:08:09.191Z,6.07
2023-03-01T01:10:38.565Z,6.03
2023-03-01T01:13:07.948Z,8.48
2023-03-01T01:15:38.065Z,6.55
2023-03-01T01:18:07.738Z,6.47
2023-03-01T01:20:39.586Z,5.85
2023-03-01T01:23:09.819Z,7.93
2023-03-01T01:25:39.115Z,8.45
2023-03-01T01:28:08.508Z,6.60
2023-03-01T01:30:37.660Z,7.18
2023-03-01T01:33:07.229Z,8.10
2023-03-01T01:35:36.464Z,7.07
2023-03-01T01:38:07.193Z,8.30
2023-03-01T01:40:36.609Z,8.05
2023-03-01T01:43:07.203Z,6.82
2023-03-01T01:45:37.804Z,6.65
2023-03-01T01:48:13.012Z,6.93
2023-03-01T01:50:46.105Z,5.90
2023-03-01T01:53:20.394Z,7.30
2023-03-01T01:55:54.479Z,6.32
2023-03-01T01:58:26.492Z,7.32
2023-03-01T02:00:56.607Z,5.28
2023-03-01T02:03:30.491Z,7.63
2023-03-01T02:06:05.542Z,5.15
2023-03-01T02:08:40.190Z,6.20
2023-03-01T02:11:11.029Z,7.05
2023-03-01T02:13:40.776Z,5.70
2023-03-01T02:16:13.330Z,5.78
2023-03-01T02:18:45.645Z,7.43
2023-03-01T02:21:29.800Z,5.90
2023-03-01T02:24:06.900Z,6.25
2023-03-01T02:26:43.053Z,6.40
2023-03-01T02:29:13.916Z,6.65
2023-03-01T02:31:46.026Z,5.28
2023-03-01T02:34:18.535Z,5.35
2023-03-01T02:36:50.154Z,7.80
2023-03-01T02:39:24.200Z,6.93
2023-03-01T02:41:56.251Z,6.47
2023-03-01T02:44:27.441Z,7.35
2023-03-01T02:46:59.863Z,6.60
2023-03-01T02:49:31.696Z,7.70
2023-03-01T02:52:22.794Z,6.75
2023-03-01T02:54:58.488Z,5.68
2023-03-01T02:57:29.805Z,8.52
2023-03-01T03:00:08.116Z,10.50
2023-03-01T03:02:38.802Z,8.32
2023-03-01T03:05:15.392Z,7.93
2023-03-01T03:07:47.489Z,5.53
2023-03-01T03:10:20.519Z,7.13
2023-03-01T03:12:53.612Z,7.47
2023-03-01T03:15:25.354Z,11.10
2023-03-01T03:17:56.139Z,6.65
2023-03-01T03:20:28.563Z,6.95
2023-03-01T03:22:59.974Z,9.68
2023-03-01T03:25:31.625Z,10.02
2023-03-01T03:28:01.527Z,9.43
2023-03-01T03:31:20.017Z,11.25
2023-03-01T03:33:50.859Z,7.70
2023-03-01T03:36:21.587Z,8.38
2023-03-01T03:38:51.075Z,11.05
2023-03-01T03:41:20.593Z,9.40
2023-03-01T03:43:50.104Z,6.13
2023-03-01T03:46:19.505Z,9.57
2023-03-01T03:48:51.063Z,7.97
2023-03-01T03:51:23.857Z,11.90
2023-03-01T03:53:53.131Z,10.48
2023-03-01T03:56:22.514Z,9.25
2023-03-01T03:58:51.892Z,12.27
2023-03-01T04:01:21.386Z,9.45
2023-03-01T04:03:55.574Z,8.90
2023-03-01T04:06:25.052Z,14.45
2023-03-01T04:09:00.011Z,12.60
2023-03-01T04:11:29.516Z,14.05
2023-03-01T04:14:01.166Z,8.98
2023-03-01T04:16:31.075Z,9.13
2023-03-01T04:19:01.913Z,13.18
2023-03-01T04:21:31.366Z,10.70
2023-03-01T04:24:00.420Z,11.27
2023-03-01T04:26:30.305Z,12.02
2023-03-01T04:28:59.628Z,9.38
2023-03-01T04:31:29.431Z,8.45
2023-03-01T04:34:01.165Z,9.15
2023-03-01T04:36:31.932Z,12.80
2023-03-01T04:39:01.694Z,10.07
2023-03-01T04:41:31.058Z,12.38
2023-03-01T04:44:01.156Z,10.50
2023-03-01T04:46:30.878Z,12.48
2023-03-01T04:49:01.642Z,12.32
2023-03-01T04:51:33.209Z,13.48
2023-03-01T04:54:02.574Z,11.70
2023-03-01T04:56:32.433Z,11.60
2023-03-01T05:01:31.407Z,9.18
2023-03-01T05:04:06.697Z,10.95
2023-03-01T05:06:36.187Z,10.90
2023-03-01T05:09:05.359Z,9.47
2023-03-01T05:11:36.980Z,14.25
2023-03-01T05:14:08.224Z,9.98
2023-03-01T05:16:38.510Z,10.70
2023-03-01T05:22:05.169Z,9.27
2023-03-01T05:24:36.138Z,11.65
2023-03-01T05:27:07.388Z,10.15
2023-03-01T05:29:36.935Z,13.35
2023-03-01T05:32:06.807Z,8.68
2023-03-01T05:34:39.356Z,10.73
2023-03-01T05:37:09.600Z,9.10
2023-03-01T05:42:09.773Z,13.10
2023-03-01T05:44:39.259Z,11.45
2023-03-01T05:47:08.569Z,11.88
2023-03-01T05:49:39.892Z,10.05
2023-03-01T05:52:09.964Z,13.73
2023-03-01T05:54:39.748Z,12.00
2023-03-01T05:59:38.332Z,12.13
2023-03-01T06:02:07.674Z,12.35
2023-03-01T06:04:38.265Z,11.80
2023-03-01T06:07:07.729Z,8.10
2023-03-01T06:09:36.815Z,13.10
2023-03-01T06:12:07.342Z,13.30
2023-03-01T06:14:36.547Z,9.05
2023-03-01T06:17:06.038Z,13.50
2023-03-01T06:19:35.463Z,10.55
2023-03-01T06:22:06.222Z,12.90
2023-03-01T06:24:35.843Z,11.18
2023-03-01T06:27:05.624Z,13.25
2023-03-01T06:29:34.812Z,10.05
2023-03-01T06:32:04.570Z,10.55
2023-03-01T06:34:34.277Z,7.07
2023-03-01T06:37:06.294Z,11.27
2023-03-01T06:39:35.997Z,11.88
2023-03-01T06:44:34.722Z,9.60
2023-03-01T06:47:04.281Z,10.15
2023-03-01T06:49:33.573Z,11.43
2023-03-01T06:52:02.930Z,12.40
2023-03-01T06:54:33.474Z,14.02
2023-03-01T06:57:02.938Z,10.57
2023-03-01T06:59:32.550Z,12.33
2023-03-01T07:02:02.179Z,10.85
2023-03-01T07:04:31.617Z,12.75
2023-03-01T07:07:01.502Z,9.63
2023-03-01T07:09:32.248Z,13.40
2023-03-01T07:12:02.089Z,10.25
2023-03-01T07:14:31.819Z,10.68
2023-03-01T07:17:01.353Z,11.07
2023-03-01T07:19:30.427Z,13.27
2023-03-01T07:21:59.799Z,13.82
2023-03-01T07:24:29.376Z,13.52
2023-03-01T07:27:00.121Z,13.70
2023-03-01T07:29:29.933Z,7.72
2023-03-01T07:31:59.552Z,12.23
2023-03-01T07:34:28.718Z,6.47
2023-03-01T07:36:58.077Z,6.88
2023-03-01T07:39:27.163Z,9.20
2023-03-01T07:41:56.939Z,10.38
2023-03-01T07:44:27.602Z,8.88
2023-03-01T07:47:00.436Z,11.32
2023-03-01T07:49:29.673Z,12.18
2023-03-01T07:51:59.338Z,10.32
2023-03-01T07:54:28.626Z,8.88
2023-03-01T07:56:59.341Z,11.15
2023-03-01T07:59:30.903Z,10.75
2023-03-01T08:02:00.759Z,10.15
2023-03-01T08:04:30.152Z,11.90
2023-03-01T08:06:59.655Z,8.05
2023-03-01T08:09:28.928Z,9.70
2023-03-01T08:12:00.636Z,9.05
2023-03-01T08:14:32.396Z,9.95
2023-03-01T08:17:04.382Z,8.90
2023-03-01T08:19:34.961Z,12.27
2023-03-01T08:22:04.857Z,10.88
2023-03-01T08:24:33.990Z,9.35
2023-03-01T08:27:03.954Z,7.93
2023-03-01T08:29:36.022Z,12.50
2023-03-01T08:32:06.282Z,9.93
2023-03-01T08:34:37.604Z,8.52
2023-03-01T08:37:07.105Z,12.45
2023-03-01T08:39:36.399Z,12.05
2023-03-01T08:42:06.109Z,11.63
2023-03-01T08:44:36.677Z,9.43
2023-03-01T08:47:06.291Z,8.98
2023-03-01T08:49:35.502Z,9.23
2023-03-01T08:52:05.330Z,6.38
2023-03-01T08:54:34.378Z,9.20
2023-03-01T08:57:05.026Z,9.27
2023-03-01T08:59:38.303Z,12.38
2023-03-01T09:02:12.921Z,10.90
2023-03-01T09:04:43.762Z,10.93
2023-03-01T09:07:14.336Z,8.48
2023-03-01T09:09:43.754Z,10.70
2023-03-01T09:12:13.359Z,10.43
2023-03-01T09:14:44.124Z,11.98
2023-03-01T09:17:13.748Z,12.23
2023-03-01T09:19:42.838Z,10.18
2023-03-01T09:22:12.224Z,9.93
2023-03-01T09:24:41.694Z,11.52
2023-03-01T09:27:11.645Z,9.23
2023-03-01T09:32:12.277Z,9.98
2023-03-01T09:34:55.390Z,10.20
2023-03-01T09:37:25.134Z,12.18
2023-03-01T09:39:54.192Z,11.57
2023-03-01T09:42:23.903Z,12.07
2023-03-01T09:44:58.634Z,11.43
2023-03-01T09:47:31.147Z,13.15
2023-03-01T09:50:10.817Z,12.13
2023-03-01T09:52:44.351Z,7.72
2023-03-01T09:55:17.005Z,11.68
2023-03-01T09:57:55.357Z,7.05
2023-03-01T10:00:36.117Z,10.93
2023-03-01T10:03:14.291Z,11.80
2023-03-01T10:05:52.259Z,10.70
2023-03-01T10:08:37.228Z,11.52
2023-03-01T10:11:14.992Z,10.32
2023-03-01T10:13:53.918Z,8.18
2023-03-01T10:16:29.820Z,10.48
2023-03-01T10:19:04.553Z,11.57
2023-03-01T10:21:38.572Z,11.55
2023-03-01T10:24:15.492Z,11.82
2023-03-01T10:26:56.019Z,11.35
2023-03-01T10:29:29.664Z,10.73
2023-03-01T10:32:00.416Z,11.35
2023-03-01T10:34:33.025Z,13.60
2023-03-01T10:37:12.020Z,8.35
2023-03-01T10:39:58.583Z,10.85
2023-03-01T10:42:31.259Z,10.88
2023-03-01T10:45:16.798Z,10.85
2023-03-01T10:47:47.544Z,10.27
2023-03-01T10:50:24.895Z,9.05
2023-03-01T10:53:02.743Z,10.73
2023-03-01T10:55:36.986Z,9.50
2023-03-01T10:58:19.294Z,11.88
2023-03-01T11:00:52.197Z,11.55
2023-03-01T11:03:25.752Z,11.32
2023-03-01T11:06:04.457Z,9.20
2023-03-01T11:08:37.016Z,9.18
2023-03-01T11:11:18.837Z,10.50
2023-03-01T11:13:56.391Z,11.18
2023-03-01T11:16:35.424Z,12.70
2023-03-01T11:19:21.063Z,9.75
2023-03-01T11:22:00.565Z,12.60
2023-03-01T11:24:37.114Z,10.45
2023-03-01T11:27:18.295Z,13.25
2023-03-01T11:29:52.398Z,6.47
2023-03-01T11:32:25.666Z,12.18
2023-03-01T11:35:02.467Z,12.30
2023-03-01T11:37:44.093Z,13.23
2023-03-01T11:40:23.862Z,15.20
2023-03-01T11:43:08.686Z,8.90
2023-03-01T11:45:49.892Z,11.63
2023-03-01T11:48:55.496Z,9.00
2023-03-01T11:51:39.616Z,13.80
2023-03-01T11:54:20.785Z,14.85
2023-03-01T11:56:57.510Z,9.88
2023-03-01T11:59:43.854Z,13.65
2023-03-01T12:02:37.393Z,12.15
2023-03-01T12:05:53.455Z,13.18
2023-03-01T12:08:32.051Z,13.95
2023-03-01T12:11:12.121Z,12.63
2023-03-01T12:16:42.846Z,14.37
2023-03-01T12:19:29.341Z,10.80
2023-03-01T12:22:14.465Z,14.55
2023-03-01T12:25:14.640Z,12.00
2023-03-01T12:28:02.634Z,12.63
2023-03-01T12:30:45.857Z,12.60
2023-03-01T12:33:24.717Z,13.00
2023-03-01T12:36:19.382Z,13.35
2023-03-01T12:38:52.583Z,13.32
2023-03-01T12:41:43.793Z,13.52
2023-03-01T12:44:37.678Z,9.77
2023-03-01T12:47:33.084Z,13.85
2023-03-01T12:50:07.021Z,12.07
2023-03-01T12:52:43.324Z,11.15
2023-03-01T12:55:35.808Z,13.50
2023-03-01T12:58:15.859Z,11.48
2023-03-01T13:00:56.698Z,12.65
2023-03-01T13:03:35.033Z,11.85
2023-03-01T13:06:13.198Z,10.90
2023-03-01T13:08:46.461Z,11.73
2023-03-01T13:11:21.936Z,11.68
2023-03-01T13:13:56.846Z,11.88
2023-03-01T13:16:43.890Z,11.85
2023-03-01T13:19:18.342Z,8.30
2023-03-01T13:21:49.583Z,12.10
2023-03-01T13:24:29.720Z,11.13
2023-03-01T13:27:30.207Z,12.55
2023-03-01T13:30:05.653Z,9.68
2023-03-01T13:32:44.566Z,12.40
2023-03-01T13:35:45.580Z,9.57
2023-03-01T13:38:48.679Z,12.20
2023-03-01T13:41:21.366Z,11.55
2023-03-01T13:43:51.147Z,9.02
2023-03-01T13:46:25.604Z,11.07
2023-03-01T13:48:58.449Z,10.68
2023-03-01T13:51:30.704Z,11.43
2023-03-01T13:54:01.616Z,8.23
2023-03-01T13:56:38.658Z,12.77
2023-03-01T13:59:15.316Z,11.27
2023-03-01T14:01:46.583Z,9.20
2023-03-01T14:04:24.502Z,13.25
2023-03-01T14:06:54.172Z,9.48
2023-03-01T14:09:29.402Z,13.77
2023-03-01T14:12:20.360Z,11.80
2023-03-01T14:14:58.671Z,11.10
2023-03-01T14:18:00.108Z,10.55
2023-03-01T14:20:32.829Z,11.50
2023-03-01T14:23:11.185Z,11.63
2023-03-01T14:25:47.991Z,11.67
2023-03-01T14:28:20.543Z,9.75
2023-03-01T14:30:51.968Z,10.88
2023-03-01T14:33:26.423Z,6.85
2023-03-01T14:35:58.878Z,10.52
2023-03-01T14:38:35.831Z,11.35
2023-03-01T14:41:08.221Z,10.05
2023-03-01T14:43:40.032Z,9.93
2023-03-01T14:46:18.904Z,10.00
2023-03-01T14:48:53.702Z,10.57
2023-03-01T14:51:23.644Z,10.45
2023-03-01T14:53:54.023Z,11.32
2023-03-01T14:56:23.474Z,12.23
2023-03-01T14:58:56.004Z,10.70
2023-03-01T15:01:25.785Z,12.05
2023-03-01T15:03:56.907Z,10.63
2023-03-01T15:06:26.660Z,12.23
2023-03-01T15:09:00.238Z,15.32
2023-03-01T15:11:32.162Z,15.07
2023-03-01T15:14:02.058Z,13.32
2023-03-01T15:16:33.822Z,14.05
2023-03-01T15:19:06.864Z,13.30
2023-03-01T15:21:39.101Z,15.35
2023-03-01T15:24:21.565Z,15.05
2023-03-01T15:26:56.390Z,16.00
2023-03-01T15:29:31.289Z,15.57
2023-03-01T15:32:04.988Z,13.35
2023-03-01T15:34:38.116Z,15.35
2023-03-01T15:37:28.666Z,17.00
2023-03-01T15:39:59.774Z,15.40
2023-03-01T15:42:40.802Z,14.68
2023-03-01T15:45:25.191Z,13.43
2023-03-01T15:47:58.815Z,15.60
2023-03-01T15:50:34.275Z,14.45
2023-03-01T15:53:07.515Z,15.05
2023-03-01T15:55:36.770Z,14.90
2023-03-01T15:58:08.841Z,14.23
2023-03-01T16:00:40.934Z,13.93
2023-03-01T16:03:17.850Z,12.68
2023-03-01T16:05:48.755Z,15.00
2023-03-01T16:08:19.963Z,15.68
2023-03-01T16:10:51.361Z,15.68
2023-03-01T16:13:23.190Z,16.58
2023-03-01T16:15:53.273Z,16.55
2023-03-01T16:18:22.859Z,16.88
2023-03-01T16:20:55.196Z,15.95
2023-03-01T16:23:26.110Z,16.42
2023-03-01T16:25:55.570Z,16.65
2023-03-01T16:28:24.927Z,17.33
2023-03-01T16:30:54.236Z,17.77
2023-03-01T16:33:28.078Z,16.55
2023-03-01T16:36:08.745Z,19.55
2023-03-01T16:38:38.417Z,20.33
2023-03-01T16:41:13.170Z,20.60
2023-03-01T16:43:48.806Z,19.33
2023-03-01T16:46:20.248Z,20.15
2023-03-01T16:48:50.284Z,21.17
2023-03-01T16:51:21.645Z,19.70
2023-03-01T16:53:52.080Z,20.27
2023-03-01T16:56:21.759Z,22.10
2023-03-01T17:01:24.480Z,22.10
2023-03-01T17:03:54.189Z,20.52
2023-03-01T17:06:25.890Z,22.80
2023-03-01T17:08:55.780Z,22.73
2023-03-01T17:11:24.909Z,24.80
2023-03-01T17:13:54.895Z,23.80
2023-03-01T17:16:24.719Z,22.27
2023-03-01T17:18:54.752Z,19.75
2023-03-01T17:21:25.538Z,20.52
2023-03-01T17:23:58.783Z,20.75
2023-03-01T17:26:29.523Z,20.45
2023-03-01T17:28:59.433Z,26.25
2023-03-01T17:31:28.850Z,24.95
2023-03-01T17:36:34.749Z,24.63
2023-03-01T17:39:06.736Z,23.70
2023-03-01T17:41:35.957Z,25.77
2023-03-01T17:44:05.659Z,25.52
2023-03-01T17:46:34.810Z,26.55
2023-03-01T17:49:04.755Z,24.30
2023-03-01T17:51:37.475Z,22.30
2023-03-01T17:54:08.181Z,22.38
2023-03-01T17:56:42.965Z,22.00
2023-03-01T17:59:12.952Z,23.73
2023-03-01T18:01:45.204Z,23.58
2023-03-01T18:04:18.587Z,20.85
2023-03-01T18:06:52.238Z,19.52
2023-03-01T18:09:32.054Z,21.10
2023-03-01T18:12:06.053Z,23.30
2023-03-01T18:14:40.211Z,29.58
2023-03-01T18:17:12.455Z,28.10
2023-03-01T18:19:43.621Z,28.17
2023-03-01T18:22:17.378Z,29.13
2023-03-01T18:24:48.792Z,27.92
2023-03-01T18:27:26.095Z,29.50
2023-03-01T18:29:58.865Z,28.55
2023-03-01T18:32:29.480Z,31.13
2023-03-01T18:35:00.230Z,24.05
2023-03-01T18:37:33.253Z,17.77
2023-03-01T18:40:04.726Z,15.27
2023-03-01T18:42:35.513Z,14.95
2023-03-01T18:45:06.627Z,12.60
2023-03-01T18:47:42.882Z,10.27
2023-03-01T18:50:15.547Z,11.52
2023-03-01T18:52:54.183Z,10.52
2023-03-01T18:55:25.921Z,9.23
2023-03-01T18:57:57.916Z,8.82
2023-03-01T19:00:28.695Z,8.13
2023-03-01T19:03:01.583Z,8.75
2023-03-01T19:05:34.158Z,7.35
2023-03-01T19:08:11.060Z,6.93
2023-03-01T19:10:47.043Z,7.00
2023-03-01T19:13:17.980Z,7.18
2023-03-01T19:15:54.922Z,7.57
2023-03-01T19:18:31.254Z,7.32
2023-03-01T19:21:04.313Z,7.78
2023-03-01T19:23:39.338Z,8.02
2023-03-01T19:26:13.160Z,8.27
2023-03-01T19:28:44.841Z,8.02
2023-03-01T19:31:19.822Z,6.88
2023-03-01T19:33:57.044Z,7.20
2023-03-01T19:36:37.574Z,6.28
2023-03-01T19:39:15.671Z,5.78
2023-03-01T19:41:49.985Z,7.00
2023-03-01T19:44:25.036Z,7.28
2023-03-01T19:46:57.228Z,9.30
2023-03-01T19:49:30.064Z,7.97
2023-03-01T19:52:00.554Z,7.55
2023-03-01T19:54:34.803Z,8.60
2023-03-01T19:57:07.550Z,8.80
2023-03-01T19:59:41.041Z,7.10
2023-03-01T20:02:13.462Z,8.35
2023-03-01T20:04:45.162Z,7.50
2023-03-01T20:07:15.312Z,7.50
2023-03-01T20:09:51.539Z,7.05
2023-03-01T20:12:26.848Z,7.13
2023-03-01T20:15:02.732Z,6.88
2023-03-01T20:17:38.529Z,6.65
2023-03-01T20:20:15.957Z,6.97
2023-03-01T20:22:51.084Z,7.10
2023-03-01T20:25:27.148Z,6.63
2023-03-01T20:27:59.181Z,6.38
2023-03-01T20:30:30.196Z,6.53
2023-03-01T20:33:05.476Z,5.93
2023-03-01T20:35:36.766Z,7.13
2023-03-01T20:38:08.233Z,6.15
2023-03-01T20:43:14.672Z,5.97
2023-03-01T20:45:44.773Z,6.28
2023-03-01T20:48:14.568Z,6.95
2023-03-01T20:50:44.650Z,6.72
2023-03-01T20:55:47.373Z,5.28
2023-03-01T20:58:18.110Z,5.20
2023-03-01T21:03:19.950Z,5.03
2023-03-01T21:05:53.001Z,4.90
2023-03-01T21:08:32.284Z,4.40
2023-03-01T21:11:06.273Z,5.25
2023-03-01T21:13:39.713Z,4.93
2023-03-01T21:18:48.261Z,3.72
2023-03-01T21:21:21.352Z,4.57
2023-03-01T21:23:56.782Z,4.68
2023-03-01T21:26:35.311Z,5.13
2023-03-01T21:29:06.323Z,4.78
2023-03-01T21:31:37.384Z,4.90
2023-03-01T21:34:08.678Z,4.82
2023-03-01T21:36:40.539Z,4.72
2023-03-01T21:39:11.905Z,4.95
2023-03-01T21:41:43.258Z,3.83
2023-03-01T21:44:15.391Z,4.15
2023-03-01T21:46:44.863Z,5.53
2023-03-01T21:49:14.494Z,5.07
2023-03-01T21:51:45.570Z,5.40
2023-03-01T21:54:17.538Z,5.20
2023-03-01T21:56:51.176Z,5.18
2023-03-01T21:59:23.629Z,4.90
2023-03-01T22:01:54.902Z,5.72
2023-03-01T22:04:25.231Z,10.30
2023-03-01T22:06:54.985Z,11.27
2023-03-01T22:09:25.878Z,10.25
2023-03-01T22:12:02.609Z,9.57
2023-03-01T22:14:33.867Z,10.88
2023-03-01T22:17:03.418Z,9.30
2023-03-01T22:22:02.457Z,8.00
2023-03-01T22:24:31.981Z,9.32
2023-03-01T22:27:02.687Z,9.10
2023-03-01T22:29:32.396Z,8.60
2023-03-01T22:32:01.648Z,9.75
2023-03-01T22:34:31.415Z,9.65
2023-03-01T22:37:00.565Z,10.85
2023-03-01T22:39:30.086Z,11.70
2023-03-01T22:41:59.415Z,9.32
2023-03-01T22:44:30.248Z,8.27
2023-03-01T22:46:59.963Z,8.70
2023-03-01T22:51:59.842Z,9.67
2023-03-01T22:54:29.982Z,12.25
2023-03-01T22:56:59.187Z,14.85
2023-03-01T22:59:30.325Z,13.30
2023-03-01T23:01:59.491Z,13.48
2023-03-01T23:04:28.841Z,15.43
2023-03-01T23:06:58.259Z,13.82
2023-03-01T23:09:30.928Z,14.38
2023-03-01T23:12:02.013Z,13.30
2023-03-01T23:14:33.710Z,14.63
2023-03-01T23:17:03.675Z,15.18
2023-03-01T23:19:33.240Z,14.77
2023-03-01T23:22:02.451Z,15.52
2023-03-01T23:24:32.538Z,14.60
2023-03-01T23:27:03.261Z,15.48
2023-03-01T23:29:34.557Z,14.65
2023-03-01T23:32:03.967Z,16.05
2023-03-01T23:34:33.297Z,14.13
2023-03-01T23:37:03.454Z,14.38
2023-03-01T23:39:33.414Z,13.73
2023-03-01T23:42:02.580Z,13.88
2023-03-01T23:44:33.598Z,14.93
2023-03-01T23:47:14.457Z,14.23
2023-03-01T23:49:43.963Z,13.60
2023-03-01T23:52:17.350Z,15.05
2023-03-01T23:54:46.855Z,13.18
2023-03-01T23:57:15.926Z,14.70
2023-03-01T23:59:46.876Z,12.82
